createdAt,value
2022-08-28T18:46:02.008Z,20.87
2022-08-28T18:51:33.711Z,21.64
2022-08-28T18:57:05.666Z,22.48
2022-08-28T19:02:40.847Z,22.96
2022-08-28T19:08:08.889Z,23.23
2022-08-28T19:13:40.530Z,23.37
2022-08-28T19:19:12.706Z,23.43
2022-08-28T19:24:44.023Z,23.46
2022-08-28T19:30:15.867Z,23.54
2022-08-28T19:35:47.492Z,23.53
2022-08-28T19:41:19.234Z,23.53
2022-08-28T19:46:55.310Z,23.58
2022-08-28T19:52:27.023Z,23.46
2022-08-28T19:57:58.742Z,23.42
2022-08-28T20:03:30.493Z,23.37
2022-08-28T20:09:02.190Z,23.35
2022-08-28T20:14:33.881Z,23.24
2022-08-28T20:20:05.646Z,23.08
2022-08-28T20:25:37.407Z,23.03
2022-08-28T20:31:09.126Z,22.83
2022-08-28T20:36:40.807Z,23.02
2022-08-28T20:42:12.561Z,22.95
2022-08-28T20:47:48.622Z,22.94
2022-08-28T20:53:23.349Z,22.85
2022-08-28T20:58:52.086Z,22.73
2022-08-28T21:04:23.801Z,22.45
2022-08-28T21:10:06.488Z,22.35
2022-08-28T21:15:27.238Z,22.24
2022-08-28T21:20:59.006Z,22.07
2022-08-28T21:26:30.665Z,22.06
2022-08-28T21:32:02.421Z,21.95
2022-08-28T21:37:34.173Z,21.89
2022-08-28T21:43:05.850Z,22.03
2022-08-28T21:48:43.948Z,22.07
2022-08-28T21:54:15.672Z,22.01
2022-08-28T21:59:47.453Z,22.03
2022-08-28T22:05:19.145Z,22.05
2022-08-28T22:10:50.838Z,22.05
2022-08-28T22:16:22.662Z,21.98
2022-08-28T22:21:54.307Z,21.89
2022-08-28T22:27:26.494Z,21.76
2022-08-28T22:32:57.758Z,21.79
2022-08-28T22:38:29.482Z,21.82
2022-08-28T22:44:01.155Z,21.87
2022-08-28T22:49:39.439Z,21.83
2022-08-28T22:55:12.285Z,21.64
2022-08-28T23:00:42.738Z,21.65
2022-08-28T23:06:14.489Z,21.59
2022-08-28T23:11:46.250Z,21.52
2022-08-28T23:17:17.921Z,21.39
2022-08-28T23:22:49.625Z,21.33
2022-08-28T23:28:21.342Z,21.3
2022-08-28T23:33:53.094Z,21.25
2022-08-28T23:39:24.817Z,21.22
2022-08-28T23:44:56.519Z,21.22
2022-08-28T23:50:32.610Z,21.11
2022-08-28T23:56:04.329Z,21.0
